Terminal Aerodrome Forecast
Issued by NWS Shreveport, LA

Home | Current Version | Previous Version | Text Only | Print | Product List | Glossary On
Versions: 1 2 3 4 5 6 7 8 9 10 11 12
000
FTUS44 KSHV 211700
TAFMLU
TAF
KMLU 211733Z 2118/2218 21007KT P6SM BKN015
     FM211900 21007KT P6SM SCT020 SCT030
     FM212300 18007KT P6SM VCTS SCT035CB SCT250
     FM220100 VRB03KT P6SM SCT250
     FM220500 VRB03KT 4SM BR FEW250
     FM221400 24006KT P6SM FEW250=

USA.gov is the U.S. government's official web portal to all federal, state and local government web resources and services.